sensor_id;sensor_type;location;lat;lon;timestamp;temperature;humidity
28614;DHT22;15806;53.548;9.964;2024-03-02T00:00:04;9.40;99.90
28614;DHT22;15806;53.548;9.964;2024-03-02T00:01:45;9.50;99.90
28614;DHT22;15806;53.548;9.964;2024-03-02T00:03:25;9.50;99.90
28614;DHT22;15806;53.548;9.964;2024-03-02T00:05:06;9.50;99.90
28614;DHT22;15806;53.548;9.964;2024-03-02T00:06:47;9.50;1.00
28614;DHT22;15806;53.548;9.964;2024-03-02T00:08:28;9.50;99.90
28614;DHT22;15806;53.548;9.964;2024-03-02T00:10:11;9.50;99.90
28614;DHT22;15806;53.548;9.964;2024-03-02T00:11:52;9.50;99.90
28614;DHT22;15806;53.548;9.964;2024-03-02T00:13:32;9.50;99.90
28614;DHT22;15806;53.548;9.964;2024-03-02T00:17:25;9.50;1.00
28614;DHT22;15806;53.548;9.964;2024-03-02T00:19:06;9.50;1.00
28614;DHT22;15806;53.548;9.964;2024-03-02T00:20:47;9.50;99.90
28614;DHT22;15806;53.548;9.964;2024-03-02T00:22:27;9.50;99.90
28614;DHT22;15806;53.548;9.964;2024-03-02T00:24:23;9.40;99.90
28614;DHT22;15806;53.548;9.964;2024-03-02T00:26:06;9.40;99.90
28614;DHT22;15806;53.548;9.964;2024-03-02T00:27:49;9.40;99.90
28614;DHT22;15806;53.548;9.964;2024-03-02T00:29:30;9.40;99.90
28614;DHT22;15806;53.548;9.964;2024-03-02T00:31:14;9.40;99.90
28614;DHT22;15806;53.548;9.964;2024-03-02T00:32:54;9.30;99.90
28614;DHT22;15806;53.548;9.964;2024-03-02T00:34:35;9.40;1.00
28614;DHT22;15806;53.548;9.964;2024-03-02T00:36:24;9.40;1.00
28614;DHT22;15806;53.548;9.964;2024-03-02T00:38:05;9.30;99.90
28614;DHT22;15806;53.548;9.964;2024-03-02T00:39:49;9.30;1.00
28614;DHT22;15806;53.548;9.964;2024-03-02T00:41:31;9.30;99.90
28614;DHT22;15806;53.548;9.964;2024-03-02T00:43:37;9.30;99.90
28614;DHT22;15806;53.548;9.964;2024-03-02T00:45:19;9.30;3.90
28614;DHT22;15806;53.548;9.964;2024-03-02T00:46:59;9.30;99.90
28614;DHT22;15806;53.548;9.964;2024-03-02T00:48:56;9.30;99.90
28614;DHT22;15806;53.548;9.964;2024-03-02T00:50:37;9.30;1.00
28614;DHT22;15806;53.548;9.964;2024-03-02T00:52:17;9.30;99.90
28614;DHT22;15806;53.548;9.964;2024-03-02T00:54:03;9.30;99.90
28614;DHT22;15806;53.548;9.964;2024-03-02T00:55:44;9.30;99.90
28614;DHT22;15806;53.548;9.964;2024-03-02T00:57:25;9.30;99.90
28614;DHT22;15806;53.548;9.964;2024-03-02T00:59:06;9.20;99.90
28614;DHT22;15806;53.548;9.964;2024-03-02T01:00:47;9.20;99.90
28614;DHT22;15806;53.548;9.964;2024-03-02T01:02:28;9.20;99.90
28614;DHT22;15806;53.548;9.964;2024-03-02T01:04:09;9.20;99.90
28614;DHT22;15806;53.548;9.964;2024-03-02T01:05:49;9.20;99.90
28614;DHT22;15806;53.548;9.964;2024-03-02T01:07:30;9.10;99.90
28614;DHT22;15806;53.548;9.964;2024-03-02T01:09:10;9.10;99.90
28614;DHT22;15806;53.548;9.964;2024-03-02T01:10:51;9.10;99.90
28614;DHT22;15806;53.548;9.964;2024-03-02T01:12:31;9.20;99.90
28614;DHT22;15806;53.548;9.964;2024-03-02T01:14:12;9.20;99.90
28614;DHT22;15806;53.548;9.964;2024-03-02T01:15:52;9.10;99.90
28614;DHT22;15806;53.548;9.964;2024-03-02T01:17:33;9.20;99.90
28614;DHT22;15806;53.548;9.964;2024-03-02T01:19:13;9.20;99.90
28614;DHT22;15806;53.548;9.964;2024-03-02T01:20:54;9.20;99.90
28614;DHT22;15806;53.548;9.964;2024-03-02T01:22:34;9.30;99.90
28614;DHT22;15806;53.548;9.964;2024-03-02T01:24:15;9.30;99.90
28614;DHT22;15806;53.548;9.964;2024-03-02T01:25:55;9.30;99.90
28614;DHT22;15806;53.548;9.964;2024-03-02T01:27:36;9.20;99.90
28614;DHT22;15806;53.548;9.964;2024-03-02T01:29:16;9.30;99.90
28614;DHT22;15806;53.548;9.964;2024-03-02T01:30:57;9.20;99.90
28614;DHT22;15806;53.548;9.964;2024-03-02T01:32:38;9.20;99.90
28614;DHT22;15806;53.548;9.964;2024-03-02T01:34:18;9.20;99.90
28614;DHT22;15806;53.548;9.964;2024-03-02T01:35:59;9.20;99.90
28614;DHT22;15806;53.548;9.964;2024-03-02T01:37:40;9.20;99.90
28614;DHT22;15806;53.548;9.964;2024-03-02T01:39:20;9.20;99.90
28614;DHT22;15806;53.548;9.964;2024-03-02T01:41:01;9.30;99.90
28614;DHT22;15806;53.548;9.964;2024-03-02T01:42:43;9.30;99.90
28614;DHT22;15806;53.548;9.964;2024-03-02T01:44:23;9.30;99.90
28614;DHT22;15806;53.548;9.964;2024-03-02T01:46:04;9.30;99.90
28614;DHT22;15806;53.548;9.964;2024-03-02T01:47:44;9.30;99.90
28614;DHT22;15806;53.548;9.964;2024-03-02T01:49:25;9.30;99.90
28614;DHT22;15806;53.548;9.964;2024-03-02T01:51:06;9.40;99.90
28614;DHT22;15806;53.548;9.964;2024-03-02T01:52:47;9.50;99.90
28614;DHT22;15806;53.548;9.964;2024-03-02T01:54:27;9.50;99.90
28614;DHT22;15806;53.548;9.964;2024-03-02T01:56:08;9.50;99.90
28614;DHT22;15806;53.548;9.964;2024-03-02T01:57:49;9.50;99.90
28614;DHT22;15806;53.548;9.964;2024-03-02T01:59:30;9.50;99.90
28614;DHT22;15806;53.548;9.964;2024-03-02T02:01:10;9.50;99.90
28614;DHT22;15806;53.548;9.964;2024-03-02T02:02:51;9.50;99.90
28614;DHT22;15806;53.548;9.964;2024-03-02T02:04:32;9.60;99.90
28614;DHT22;15806;53.548;9.964;2024-03-02T02:06:12;9.60;99.90
28614;DHT22;15806;53.548;9.964;2024-03-02T02:07:53;9.50;99.90
28614;DHT22;15806;53.548;9.964;2024-03-02T02:09:33;9.60;99.90
28614;DHT22;15806;53.548;9.964;2024-03-02T02:11:17;9.60;99.90
28614;DHT22;15806;53.548;9.964;2024-03-02T02:12:58;9.60;99.90
28614;DHT22;15806;53.548;9.964;2024-03-02T02:14:38;9.60;99.90
28614;DHT22;15806;53.548;9.964;2024-03-02T02:16:19;9.60;99.90
28614;DHT22;15806;53.548;9.964;2024-03-02T02:17:59;9.60;99.90
28614;DHT22;15806;53.548;9.964;2024-03-02T02:19:41;9.60;99.90
28614;DHT22;15806;53.548;9.964;2024-03-02T02:21:22;9.50;99.90
28614;DHT22;15806;53.548;9.964;2024-03-02T02:23:03;9.50;99.90
28614;DHT22;15806;53.548;9.964;2024-03-02T02:24:44;9.50;99.90
28614;DHT22;15806;53.548;9.964;2024-03-02T02:26:25;9.50;99.90
28614;DHT22;15806;53.548;9.964;2024-03-02T02:28:05;9.50;99.90
28614;DHT22;15806;53.548;9.964;2024-03-02T02:29:46;9.50;99.90
28614;DHT22;15806;53.548;9.964;2024-03-02T02:31:26;9.50;99.90
28614;DHT22;15806;53.548;9.964;2024-03-02T02:33:07;9.40;99.90
28614;DHT22;15806;53.548;9.964;2024-03-02T02:34:52;9.40;99.90
28614;DHT22;15806;53.548;9.964;2024-03-02T02:36:33;9.30;99.90
28614;DHT22;15806;53.548;9.964;2024-03-02T02:38:14;9.40;99.90
28614;DHT22;15806;53.548;9.964;2024-03-02T02:39:55;9.40;99.90
28614;DHT22;15806;53.548;9.964;2024-03-02T02:41:35;9.40;99.90
28614;DHT22;15806;53.548;9.964;2024-03-02T02:43:16;9.30;99.90
28614;DHT22;15806;53.548;9.964;2024-03-02T02:44:56;9.30;99.90
28614;DHT22;15806;53.548;9.964;2024-03-02T02:46:37;9.30;99.90
28614;DHT22;15806;53.548;9.964;2024-03-02T02:48:17;9.30;99.90
28614;DHT22;15806;53.548;9.964;2024-03-02T02:49:58;9.30;99.90
28614;DHT22;15806;53.548;9.964;2024-03-02T02:51:38;9.30;99.90
28614;DHT22;15806;53.548;9.964;2024-03-02T02:53:19;9.30;99.90
28614;DHT22;15806;53.548;9.964;2024-03-02T02:54:59;9.20;99.90
28614;DHT22;15806;53.548;9.964;2024-03-02T02:56:40;9.20;99.90
28614;DHT22;15806;53.548;9.964;2024-03-02T02:58:20;9.20;99.90
28614;DHT22;15806;53.548;9.964;2024-03-02T03:00:06;9.20;99.90
28614;DHT22;15806;53.548;9.964;2024-03-02T03:01:47;9.30;99.90
28614;DHT22;15806;53.548;9.964;2024-03-02T03:03:27;9.30;99.90
28614;DHT22;15806;53.548;9.964;2024-03-02T03:05:13;9.20;99.90
28614;DHT22;15806;53.548;9.964;2024-03-02T03:06:54;9.30;99.90
28614;DHT22;15806;53.548;9.964;2024-03-02T03:08:34;9.30;99.90
28614;DHT22;15806;53.548;9.964;2024-03-02T03:10:15;9.30;99.90
28614;DHT22;15806;53.548;9.964;2024-03-02T03:11:55;9.30;99.90
28614;DHT22;15806;53.548;9.964;2024-03-02T03:13:36;9.20;99.90
28614;DHT22;15806;53.548;9.964;2024-03-02T03:15:16;9.30;99.90
28614;DHT22;15806;53.548;9.964;2024-03-02T03:16:57;9.30;99.90
28614;DHT22;15806;53.548;9.964;2024-03-02T03:18:37;9.30;99.90
28614;DHT22;15806;53.548;9.964;2024-03-02T03:20:18;9.30;99.90
28614;DHT22;15806;53.548;9.964;2024-03-02T03:21:58;9.20;99.90
28614;DHT22;15806;53.548;9.964;2024-03-02T03:23:39;9.20;99.90
28614;DHT22;15806;53.548;9.964;2024-03-02T03:25:19;9.20;99.90
28614;DHT22;15806;53.548;9.964;2024-03-02T03:27:00;9.10;99.90
28614;DHT22;15806;53.548;9.964;2024-03-02T03:28:41;9.20;99.90
28614;DHT22;15806;53.548;9.964;2024-03-02T03:30:21;9.20;99.90
28614;DHT22;15806;53.548;9.964;2024-03-02T03:32:02;9.20;99.90
28614;DHT22;15806;53.548;9.964;2024-03-02T03:33:42;9.20;99.90
28614;DHT22;15806;53.548;9.964;2024-03-02T03:35:23;9.10;99.90
28614;DHT22;15806;53.548;9.964;2024-03-02T03:37:03;9.20;99.90
28614;DHT22;15806;53.548;9.964;2024-03-02T03:38:44;9.20;99.90
28614;DHT22;15806;53.548;9.964;2024-03-02T03:40:25;9.10;99.90
28614;DHT22;15806;53.548;9.964;2024-03-02T03:42:05;9.10;99.90
28614;DHT22;15806;53.548;9.964;2024-03-02T03:43:46;9.10;99.90
28614;DHT22;15806;53.548;9.964;2024-03-02T03:45:26;9.10;99.90
28614;DHT22;15806;53.548;9.964;2024-03-02T03:47:07;9.10;99.90
28614;DHT22;15806;53.548;9.964;2024-03-02T03:48:47;9.10;99.90
28614;DHT22;15806;53.548;9.964;2024-03-02T03:50:28;9.10;99.90
28614;DHT22;15806;53.548;9.964;2024-03-02T03:52:08;9.00;99.90
28614;DHT22;15806;53.548;9.964;2024-03-02T03:53:49;9.00;99.90
28614;DHT22;15806;53.548;9.964;2024-03-02T03:55:29;9.00;99.90
28614;DHT22;15806;53.548;9.964;2024-03-02T03:57:10;9.10;99.90
28614;DHT22;15806;53.548;9.964;2024-03-02T03:58:51;9.00;99.90
28614;DHT22;15806;53.548;9.964;2024-03-02T04:00:31;9.10;99.90
28614;DHT22;15806;53.548;9.964;2024-03-02T04:02:11;9.00;99.90
28614;DHT22;15806;53.548;9.964;2024-03-02T04:03:52;9.00;99.90
28614;DHT22;15806;53.548;9.964;2024-03-02T04:05:32;9.00;99.90
28614;DHT22;15806;53.548;9.964;2024-03-02T04:07:13;9.00;99.90
28614;DHT22;15806;53.548;9.964;2024-03-02T04:08:53;9.00;99.90
28614;DHT22;15806;53.548;9.964;2024-03-02T04:10:34;9.00;99.90
28614;DHT22;15806;53.548;9.964;2024-03-02T04:12:15;9.00;99.90
28614;DHT22;15806;53.548;9.964;2024-03-02T04:13:55;9.00;99.90
28614;DHT22;15806;53.548;9.964;2024-03-02T04:15:36;8.90;99.90
28614;DHT22;15806;53.548;9.964;2024-03-02T04:17:16;8.90;99.90
28614;DHT22;15806;53.548;9.964;2024-03-02T04:18:57;8.90;99.90
28614;DHT22;15806;53.548;9.964;2024-03-02T04:20:37;8.90;99.90
28614;DHT22;15806;53.548;9.964;2024-03-02T04:22:18;8.80;99.90
28614;DHT22;15806;53.548;9.964;2024-03-02T04:23:58;8.80;99.90
28614;DHT22;15806;53.548;9.964;2024-03-02T04:25:39;8.80;99.90
28614;DHT22;15806;53.548;9.964;2024-03-02T04:27:19;8.80;99.90
28614;DHT22;15806;53.548;9.964;2024-03-02T04:29:00;8.80;99.90
28614;DHT22;15806;53.548;9.964;2024-03-02T04:30:40;8.70;99.90
28614;DHT22;15806;53.548;9.964;2024-03-02T04:32:21;8.70;99.90
28614;DHT22;15806;53.548;9.964;2024-03-02T04:34:01;8.70;99.90
28614;DHT22;15806;53.548;9.964;2024-03-02T04:35:42;8.70;99.90
28614;DHT22;15806;53.548;9.964;2024-03-02T04:37:22;8.80;99.90
28614;DHT22;15806;53.548;9.964;2024-03-02T04:39:03;8.80;99.90
28614;DHT22;15806;53.548;9.964;2024-03-02T04:40:43;8.80;99.90
28614;DHT22;15806;53.548;9.964;2024-03-02T04:42:24;8.80;99.90
28614;DHT22;15806;53.548;9.964;2024-03-02T04:44:04;8.80;99.90
28614;DHT22;15806;53.548;9.964;2024-03-02T04:45:45;8.80;99.90
28614;DHT22;15806;53.548;9.964;2024-03-02T04:47:25;8.80;99.90
28614;DHT22;15806;53.548;9.964;2024-03-02T04:49:06;8.80;99.90
28614;DHT22;15806;53.548;9.964;2024-03-02T04:50:46;8.80;99.90
28614;DHT22;15806;53.548;9.964;2024-03-02T04:52:27;8.80;99.90
28614;DHT22;15806;53.548;9.964;2024-03-02T04:54:07;8.80;99.90
28614;DHT22;15806;53.548;9.964;2024-03-02T04:55:48;8.80;99.90
28614;DHT22;15806;53.548;9.964;2024-03-02T04:57:28;8.80;99.90
28614;DHT22;15806;53.548;9.964;2024-03-02T04:59:09;8.80;99.90
28614;DHT22;15806;53.548;9.964;2024-03-02T05:00:49;8.80;99.90
28614;DHT22;15806;53.548;9.964;2024-03-02T05:02:30;8.70;99.90
28614;DHT22;15806;53.548;9.964;2024-03-02T05:04:11;8.70;99.90
28614;DHT22;15806;53.548;9.964;2024-03-02T05:05:51;8.70;99.90
28614;DHT22;15806;53.548;9.964;2024-03-02T05:07:32;8.70;99.90
28614;DHT22;15806;53.548;9.964;2024-03-02T05:09:12;8.60;99.90
28614;DHT22;15806;53.548;9.964;2024-03-02T05:10:52;8.70;99.90
28614;DHT22;15806;53.548;9.964;2024-03-02T05:12:33;8.60;99.90
28614;DHT22;15806;53.548;9.964;2024-03-02T05:14:13;8.60;99.90
28614;DHT22;15806;53.548;9.964;2024-03-02T05:15:54;8.60;99.90
28614;DHT22;15806;53.548;9.964;2024-03-02T05:17:40;8.60;99.90
28614;DHT22;15806;53.548;9.964;2024-03-02T05:19:21;8.60;99.90
28614;DHT22;15806;53.548;9.964;2024-03-02T05:21:01;8.60;99.90
28614;DHT22;15806;53.548;9.964;2024-03-02T05:22:42;8.70;99.90
28614;DHT22;15806;53.548;9.964;2024-03-02T05:24:22;8.60;99.90
28614;DHT22;15806;53.548;9.964;2024-03-02T05:26:03;8.60;99.90
28614;DHT22;15806;53.548;9.964;2024-03-02T05:27:43;8.60;99.90
28614;DHT22;15806;53.548;9.964;2024-03-02T05:29:24;8.60;99.90
28614;DHT22;15806;53.548;9.964;2024-03-02T05:31:04;8.60;99.90
28614;DHT22;15806;53.548;9.964;2024-03-02T05:32:45;8.60;99.90
28614;DHT22;15806;53.548;9.964;2024-03-02T05:34:25;8.60;99.90
28614;DHT22;15806;53.548;9.964;2024-03-02T05:36:06;8.60;99.90
28614;DHT22;15806;53.548;9.964;2024-03-02T05:37:47;8.60;99.90
28614;DHT22;15806;53.548;9.964;2024-03-02T05:39:27;8.60;99.90
28614;DHT22;15806;53.548;9.964;2024-03-02T05:41:08;8.60;99.90
28614;DHT22;15806;53.548;9.964;2024-03-02T05:42:48;8.60;99.90
28614;DHT22;15806;53.548;9.964;2024-03-02T05:44:29;8.60;99.90
28614;DHT22;15806;53.548;9.964;2024-03-02T05:46:10;8.50;99.90
28614;DHT22;15806;53.548;9.964;2024-03-02T05:47:50;8.50;99.90
28614;DHT22;15806;53.548;9.964;2024-03-02T05:49:31;8.60;99.90
28614;DHT22;15806;53.548;9.964;2024-03-02T05:51:11;8.60;99.90
28614;DHT22;15806;53.548;9.964;2024-03-02T05:52:52;8.60;99.90
28614;DHT22;15806;53.548;9.964;2024-03-02T05:54:32;8.60;99.90
28614;DHT22;15806;53.548;9.964;2024-03-02T05:56:13;8.60;99.90
28614;DHT22;15806;53.548;9.964;2024-03-02T05:57:53;8.50;99.90
28614;DHT22;15806;53.548;9.964;2024-03-02T05:59:34;8.50;99.90
28614;DHT22;15806;53.548;9.964;2024-03-02T06:01:14;8.60;99.90
28614;DHT22;15806;53.548;9.964;2024-03-02T06:02:55;8.70;99.90
28614;DHT22;15806;53.548;9.964;2024-03-02T06:04:35;8.70;99.90
28614;DHT22;15806;53.548;9.964;2024-03-02T06:06:15;8.60;99.90
28614;DHT22;15806;53.548;9.964;2024-03-02T06:07:56;8.60;99.90
28614;DHT22;15806;53.548;9.964;2024-03-02T06:09:36;8.50;99.90
28614;DHT22;15806;53.548;9.964;2024-03-02T06:11:19;8.40;99.90
28614;DHT22;15806;53.548;9.964;2024-03-02T06:12:59;8.50;99.90
28614;DHT22;15806;53.548;9.964;2024-03-02T06:14:40;8.50;99.90
28614;DHT22;15806;53.548;9.964;2024-03-02T06:16:20;8.50;99.90
28614;DHT22;15806;53.548;9.964;2024-03-02T06:18:00;8.50;99.90
28614;DHT22;15806;53.548;9.964;2024-03-02T06:19:41;8.50;99.90
28614;DHT22;15806;53.548;9.964;2024-03-02T06:21:22;8.50;99.90
28614;DHT22;15806;53.548;9.964;2024-03-02T06:23:02;8.50;99.90
28614;DHT22;15806;53.548;9.964;2024-03-02T06:24:43;8.50;99.90
28614;DHT22;15806;53.548;9.964;2024-03-02T06:26:23;8.50;99.90
28614;DHT22;15806;53.548;9.964;2024-03-02T06:28:04;8.50;99.90
28614;DHT22;15806;53.548;9.964;2024-03-02T06:29:45;8.40;99.90
28614;DHT22;15806;53.548;9.964;2024-03-02T06:31:25;8.40;99.90
28614;DHT22;15806;53.548;9.964;2024-03-02T06:33:06;8.40;99.90
28614;DHT22;15806;53.548;9.964;2024-03-02T06:34:46;8.40;99.90
28614;DHT22;15806;53.548;9.964;2024-03-02T06:36:27;8.40;99.90
28614;DHT22;15806;53.548;9.964;2024-03-02T06:38:07;8.40;99.90
28614;DHT22;15806;53.548;9.964;2024-03-02T06:39:48;8.40;99.90
28614;DHT22;15806;53.548;9.964;2024-03-02T06:41:28;8.40;99.90
28614;DHT22;15806;53.548;9.964;2024-03-02T06:43:09;8.40;99.90
28614;DHT22;15806;53.548;9.964;2024-03-02T06:44:49;8.40;99.90
28614;DHT22;15806;53.548;9.964;2024-03-02T06:46:30;8.50;99.90
28614;DHT22;15806;53.548;9.964;2024-03-02T06:48:10;8.50;99.90
28614;DHT22;15806;53.548;9.964;2024-03-02T06:49:51;8.50;99.90
28614;DHT22;15806;53.548;9.964;2024-03-02T06:51:33;8.50;99.90
28614;DHT22;15806;53.548;9.964;2024-03-02T06:53:14;8.40;99.90
28614;DHT22;15806;53.548;9.964;2024-03-02T06:54:54;8.40;99.90
28614;DHT22;15806;53.548;9.964;2024-03-02T06:56:35;8.40;99.90
28614;DHT22;15806;53.548;9.964;2024-03-02T06:58:16;8.40;99.90
28614;DHT22;15806;53.548;9.964;2024-03-02T06:59:56;8.40;99.90
28614;DHT22;15806;53.548;9.964;2024-03-02T07:01:37;8.30;99.90
28614;DHT22;15806;53.548;9.964;2024-03-02T07:03:17;8.30;99.90
28614;DHT22;15806;53.548;9.964;2024-03-02T07:04:58;8.30;99.90
28614;DHT22;15806;53.548;9.964;2024-03-02T07:06:38;8.40;99.90
28614;DHT22;15806;53.548;9.964;2024-03-02T07:08:19;8.40;99.90
28614;DHT22;15806;53.548;9.964;2024-03-02T07:09:59;8.40;99.90
28614;DHT22;15806;53.548;9.964;2024-03-02T07:11:40;8.40;99.90
28614;DHT22;15806;53.548;9.964;2024-03-02T07:13:20;8.40;99.90
28614;DHT22;15806;53.548;9.964;2024-03-02T07:15:01;8.40;99.90
28614;DHT22;15806;53.548;9.964;2024-03-02T07:16:41;8.50;99.90
28614;DHT22;15806;53.548;9.964;2024-03-02T07:18:22;8.50;99.90
28614;DHT22;15806;53.548;9.964;2024-03-02T07:20:02;8.50;99.90
28614;DHT22;15806;53.548;9.964;2024-03-02T07:21:43;8.50;99.90
28614;DHT22;15806;53.548;9.964;2024-03-02T07:23:23;8.50;99.90
28614;DHT22;15806;53.548;9.964;2024-03-02T07:25:04;8.50;99.90
28614;DHT22;15806;53.548;9.964;2024-03-02T07:26:45;8.50;99.90
28614;DHT22;15806;53.548;9.964;2024-03-02T07:28:26;8.50;99.90
28614;DHT22;15806;53.548;9.964;2024-03-02T07:30:07;8.40;99.90
28614;DHT22;15806;53.548;9.964;2024-03-02T07:31:47;8.50;99.90
28614;DHT22;15806;53.548;9.964;2024-03-02T07:33:28;8.50;99.90
28614;DHT22;15806;53.548;9.964;2024-03-02T07:35:08;8.50;99.90
28614;DHT22;15806;53.548;9.964;2024-03-02T07:36:49;8.40;99.90
28614;DHT22;15806;53.548;9.964;2024-03-02T07:38:30;8.40;99.90
28614;DHT22;15806;53.548;9.964;2024-03-02T07:40:11;8.50;99.90
28614;DHT22;15806;53.548;9.964;2024-03-02T07:41:52;8.50;99.90
28614;DHT22;15806;53.548;9.964;2024-03-02T07:43:32;8.50;99.90
28614;DHT22;15806;53.548;9.964;2024-03-02T07:45:13;8.50;99.90
28614;DHT22;15806;53.548;9.964;2024-03-02T07:46:54;8.40;99.90
28614;DHT22;15806;53.548;9.964;2024-03-02T07:48:34;8.40;99.90
28614;DHT22;15806;53.548;9.964;2024-03-02T07:50:15;8.40;99.90
28614;DHT22;15806;53.548;9.964;2024-03-02T07:51:55;8.40;99.90
28614;DHT22;15806;53.548;9.964;2024-03-02T07:53:36;8.40;99.90
28614;DHT22;15806;53.548;9.964;2024-03-02T07:55:17;8.40;99.90
28614;DHT22;15806;53.548;9.964;2024-03-02T07:56:58;8.40;99.90
28614;DHT22;15806;53.548;9.964;2024-03-02T07:58:38;8.50;99.90
28614;DHT22;15806;53.548;9.964;2024-03-02T08:00:19;8.50;99.90
28614;DHT22;15806;53.548;9.964;2024-03-02T08:01:59;8.50;99.90
28614;DHT22;15806;53.548;9.964;2024-03-02T08:03:40;8.50;99.90
28614;DHT22;15806;53.548;9.964;2024-03-02T08:05:21;8.50;99.90
28614;DHT22;15806;53.548;9.964;2024-03-02T08:07:01;8.50;99.90
28614;DHT22;15806;53.548;9.964;2024-03-02T08:08:42;8.60;99.90
28614;DHT22;15806;53.548;9.964;2024-03-02T08:10:22;8.60;99.90
28614;DHT22;15806;53.548;9.964;2024-03-02T08:12:03;8.60;99.90
28614;DHT22;15806;53.548;9.964;2024-03-02T08:13:44;8.60;99.90
28614;DHT22;15806;53.548;9.964;2024-03-02T08:15:24;8.60;99.90
28614;DHT22;15806;53.548;9.964;2024-03-02T08:17:05;8.60;99.90
28614;DHT22;15806;53.548;9.964;2024-03-02T08:18:47;8.60;99.90
28614;DHT22;15806;53.548;9.964;2024-03-02T08:20:28;8.60;99.90
28614;DHT22;15806;53.548;9.964;2024-03-02T08:22:08;8.60;99.90
28614;DHT22;15806;53.548;9.964;2024-03-02T08:23:49;8.60;99.90
28614;DHT22;15806;53.548;9.964;2024-03-02T08:25:29;8.60;99.90
28614;DHT22;15806;53.548;9.964;2024-03-02T08:27:10;8.60;99.90
28614;DHT22;15806;53.548;9.964;2024-03-02T08:28:50;8.60;99.90
28614;DHT22;15806;53.548;9.964;2024-03-02T08:30:31;8.60;99.90
28614;DHT22;15806;53.548;9.964;2024-03-02T08:32:11;8.70;99.90
28614;DHT22;15806;53.548;9.964;2024-03-02T08:33:52;8.60;99.90
28614;DHT22;15806;53.548;9.964;2024-03-02T08:35:32;8.60;99.90
28614;DHT22;15806;53.548;9.964;2024-03-02T08:37:13;8.60;99.90
28614;DHT22;15806;53.548;9.964;2024-03-02T08:38:53;8.60;99.90
28614;DHT22;15806;53.548;9.964;2024-03-02T08:40:34;8.60;99.90
28614;DHT22;15806;53.548;9.964;2024-03-02T08:42:15;8.60;99.90
28614;DHT22;15806;53.548;9.964;2024-03-02T08:43:55;8.60;99.90
28614;DHT22;15806;53.548;9.964;2024-03-02T08:45:36;8.70;99.90
28614;DHT22;15806;53.548;9.964;2024-03-02T08:47:16;8.60;99.90
28614;DHT22;15806;53.548;9.964;2024-03-02T08:48:57;8.70;99.90
28614;DHT22;15806;53.548;9.964;2024-03-02T08:50:38;8.80;99.90
28614;DHT22;15806;53.548;9.964;2024-03-02T08:52:18;8.80;99.90
28614;DHT22;15806;53.548;9.964;2024-03-02T08:53:59;8.90;99.90
28614;DHT22;15806;53.548;9.964;2024-03-02T08:55:39;8.90;99.90
28614;DHT22;15806;53.548;9.964;2024-03-02T08:57:20;8.90;99.90
28614;DHT22;15806;53.548;9.964;2024-03-02T08:59:01;9.10;99.90
28614;DHT22;15806;53.548;9.964;2024-03-02T09:00:41;9.20;99.90
28614;DHT22;15806;53.548;9.964;2024-03-02T09:02:22;9.30;99.90
28614;DHT22;15806;53.548;9.964;2024-03-02T09:04:03;9.30;99.90
28614;DHT22;15806;53.548;9.964;2024-03-02T09:05:43;9.40;99.90
28614;DHT22;15806;53.548;9.964;2024-03-02T09:07:24;9.40;99.90
28614;DHT22;15806;53.548;9.964;2024-03-02T09:09:04;9.40;99.90
28614;DHT22;15806;53.548;9.964;2024-03-02T09:10:44;9.40;99.90
28614;DHT22;15806;53.548;9.964;2024-03-02T09:12:25;9.40;99.90
28614;DHT22;15806;53.548;9.964;2024-03-02T09:14:06;9.50;99.90
28614;DHT22;15806;53.548;9.964;2024-03-02T09:15:46;9.60;99.90
28614;DHT22;15806;53.548;9.964;2024-03-02T09:17:27;9.60;99.90
28614;DHT22;15806;53.548;9.964;2024-03-02T09:19:07;9.60;99.90
28614;DHT22;15806;53.548;9.964;2024-03-02T09:20:48;9.60;99.90
28614;DHT22;15806;53.548;9.964;2024-03-02T09:22:28;9.60;99.90
28614;DHT22;15806;53.548;9.964;2024-03-02T09:24:09;9.70;99.90
28614;DHT22;15806;53.548;9.964;2024-03-02T09:25:49;9.70;1.00
28614;DHT22;15806;53.548;9.964;2024-03-02T09:27:30;9.70;99.90
28614;DHT22;15806;53.548;9.964;2024-03-02T09:29:10;9.80;1.00
28614;DHT22;15806;53.548;9.964;2024-03-02T09:30:51;9.80;1.00
28614;DHT22;15806;53.548;9.964;2024-03-02T09:32:31;9.90;99.90
28614;DHT22;15806;53.548;9.964;2024-03-02T09:34:12;9.90;1.00
28614;DHT22;15806;53.548;9.964;2024-03-02T09:35:53;9.90;1.00
28614;DHT22;15806;53.548;9.964;2024-03-02T09:37:33;10.00;99.90
28614;DHT22;15806;53.548;9.964;2024-03-02T09:39:14;10.00;1.00
28614;DHT22;15806;53.548;9.964;2024-03-02T09:40:54;10.20;1.00
28614;DHT22;15806;53.548;9.964;2024-03-02T09:42:35;10.20;99.90
28614;DHT22;15806;53.548;9.964;2024-03-02T09:44:16;10.20;99.90
28614;DHT22;15806;53.548;9.964;2024-03-02T09:45:56;10.30;99.90
28614;DHT22;15806;53.548;9.964;2024-03-02T09:47:37;10.40;99.90
28614;DHT22;15806;53.548;9.964;2024-03-02T09:49:18;10.50;26.00
28614;DHT22;15806;53.548;9.964;2024-03-02T09:50:59;10.30;1.00
28614;DHT22;15806;53.548;9.964;2024-03-02T09:52:42;10.30;1.00
28614;DHT22;15806;53.548;9.964;2024-03-02T09:54:23;10.30;1.00
28614;DHT22;15806;53.548;9.964;2024-03-02T09:56:03;10.30;1.00
28614;DHT22;15806;53.548;9.964;2024-03-02T09:57:45;10.40;1.00
28614;DHT22;15806;53.548;9.964;2024-03-02T09:59:26;10.50;99.90
28614;DHT22;15806;53.548;9.964;2024-03-02T10:01:06;10.50;99.90
28614;DHT22;15806;53.548;9.964;2024-03-02T10:02:47;10.50;99.90
28614;DHT22;15806;53.548;9.964;2024-03-02T10:04:28;10.50;99.90
28614;DHT22;15806;53.548;9.964;2024-03-02T10:08:02;10.70;1.00
28614;DHT22;15806;53.548;9.964;2024-03-02T10:09:44;10.80;1.00
28614;DHT22;15806;53.548;9.964;2024-03-02T10:11:30;10.90;99.90
28614;DHT22;15806;53.548;9.964;2024-03-02T10:13:12;10.90;99.90
28614;DHT22;15806;53.548;9.964;2024-03-02T10:15:03;10.90;24.90
28614;DHT22;15806;53.548;9.964;2024-03-02T10:16:44;11.00;1.00
28614;DHT22;15806;53.548;9.964;2024-03-02T10:18:27;11.10;1.00
28614;DHT22;15806;53.548;9.964;2024-03-02T10:20:26;11.10;1.00
28614;DHT22;15806;53.548;9.964;2024-03-02T10:22:09;11.20;99.90
28614;DHT22;15806;53.548;9.964;2024-03-02T10:23:49;11.30;99.90
28614;DHT22;15806;53.548;9.964;2024-03-02T10:25:33;11.40;99.90
28614;DHT22;15806;53.548;9.964;2024-03-02T10:27:22;11.40;1.00
28614;DHT22;15806;53.548;9.964;2024-03-02T10:29:03;11.40;1.00
28614;DHT22;15806;53.548;9.964;2024-03-02T10:30:47;11.40;1.00
28614;DHT22;15806;53.548;9.964;2024-03-02T10:32:29;11.40;1.00
28614;DHT22;15806;53.548;9.964;2024-03-02T10:34:10;11.50;1.00
28614;DHT22;15806;53.548;9.964;2024-03-02T10:35:51;11.50;1.00
28614;DHT22;15806;53.548;9.964;2024-03-02T10:37:32;11.60;1.00
28614;DHT22;15806;53.548;9.964;2024-03-02T10:39:13;11.60;1.00
28614;DHT22;15806;53.548;9.964;2024-03-02T10:40:54;11.60;1.00
28614;DHT22;15806;53.548;9.964;2024-03-02T10:42:37;11.60;1.00
28614;DHT22;15806;53.548;9.964;2024-03-02T10:44:19;11.60;1.00
28614;DHT22;15806;53.548;9.964;2024-03-02T10:45:59;11.70;1.00
28614;DHT22;15806;53.548;9.964;2024-03-02T10:47:42;11.70;99.90
28614;DHT22;15806;53.548;9.964;2024-03-02T10:49:24;11.70;99.90
28614;DHT22;15806;53.548;9.964;2024-03-02T10:51:05;11.80;99.90